Arlington, OR

6:26 PM PST on December 17, 2014 (GMT -0800)
KORARLIN2 | Change Station
CLOSE
Current Station
Personal Weather Station
Location: Arlington, OR
Elevation: 890 ft
Nearby Weather Stations

Elev 890 ft 45.72 °N, 120.18 °W | Updated 3 minutes ago

Overcast
Overcast
38.5 °F
Feels Like 38 °F
N
0.0
Wind Variable Wind from SW
Gusts 0.0 mph

Today
High -- | Low -- °F
--% Chance of Precip.
Yesterday
High -- | Low -- °F
Precip. -- in
7:36 AM 4:17 PM
Waning Crescent, 18% visible
Pressure 29.99 in
Visibility 6.0 miles
Clouds Overcast 900 ft
Windchill 38 °F
Dew Point 36 °F
Humidity 92%
Rainfall 0.00 in
Snow Depth Not available.
UV 0.0 out of 12
Pollen .30 out of 12
Air Quality Not available.
Flu Activity Not available.
METAR KHRI 180153Z AUTO 20004KT 6SM BR OVC009 04/02 A2997 RMK AO2 SLP154 T00390022

More Conditions Fewer Conditions

Pressure 29.99 in
Visibility 6.0 miles
Clouds Overcast 900 ft
Windchill 38 °F
Dew Point 36 °F
Humidity 92%
Rainfall 0.00 in
Snow Depth Not available.
UV 0.0 out of 12
Pollen .30 out of 12
Air Quality Not available.
Flu Activity Not available.
METAR KHRI 180153Z AUTO 20004KT 6SM BR OVC009 04/02 A2997 RMK AO2 SLP154 T00390022

More Conditions Fewer Conditions

10-Day Weather Forecast

Almanac

Astronomy

Dec. 17, 2014 Rise Set
Actual Time
Civil Twilight
Nautical Twilight
Astronomical Twilight
Moon
Length of Visible Light
Length of Day
Tomorrow will be .
, % of the Moon is Illuminated

Today's Extremes

State Highs State Lows

Community

WunderPhotos

Upload Photos

1,778,859 photos uploaded!

WunderBlogs® & News

Nearby

Air Quality

  Air Quality AQ Index Pollutant
Not available.

Snow Depth

Station Depth Elevation

Earthquake Activity

City Distance Mag. Time & Date
Minimum magnitude displayed is 2.5.

Coastal Water Temperatures

Place Temperature

Nearby Weather Stations